Terminal Aerodrome Forecast
Issued by NWS Shreveport, LA

Home | Current Version | Previous Version | Text Only | Print | Product List | Glossary On
Versions: 1 2 3 4 5 6 7 8 9 10 11 12 13 14 15 16 17 18
654
FTUS44 KSHV 241122
TAFSHV
TAF
KSHV 241122Z 2412/2512 18003KT P6SM FEW015
      TEMPO 2413/2415 6SM BR FEW008 SCT015
     FM241500 22006KT P6SM SCT020 SCT035
     FM241700 20006KT P6SM SCT040 SCT120
     FM242100 17006KT P6SM SCT050
     FM250100 16005KT P6SM SCT250
     FM251000 19004KT P6SM FEW020 BKN150=

USA.gov is the U.S. government's official web portal to all federal, state and local government web resources and services.